Terminal Aerodrome Forecast
Issued by NWS

Home | Current Version | Previous Version | Text Only | Print | Product List | Glossary On
Versions: 1 2 3 4 5 6 7 8 9 10 11 12 13 14 15 16 17 18 19 20
000
FTUS43 KIND 261120
TAFHUF
TAF
KHUF 261120Z 2612/2712 28004KT P6SM -RA BKN014 OVC080
     FM261500 28010KT P6SM SCT020 BKN200
     FM270100 25004KT P6SM FEW040=

USA.gov is the U.S. government's official web portal to all federal, state and local government web resources and services.